createdAt,value
2022-07-30T00:01:33.914Z,74.98
2022-07-30T00:04:02.312Z,74.91
2022-07-30T00:06:28.710Z,74.83
2022-07-30T00:08:54.915Z,75.09
2022-07-30T00:11:25.841Z,74.99
2022-07-30T00:13:53.855Z,74.79
2022-07-30T00:16:20.087Z,74.74
2022-07-30T00:18:46.354Z,74.76
2022-07-30T00:21:12.602Z,74.89
2022-07-30T00:24:01.779Z,74.99
2022-07-30T00:26:28.760Z,74.76
2022-07-30T00:28:54.968Z,74.65
2022-07-30T00:31:21.259Z,74.67
2022-07-30T00:33:48.624Z,74.75
2022-07-30T00:36:14.932Z,74.62
2022-07-30T00:38:41.099Z,74.59
2022-07-30T00:41:07.384Z,74.70
2022-07-30T00:43:33.850Z,74.47
2022-07-30T00:46:00.271Z,74.51
2022-07-30T00:48:26.863Z,74.57
2022-07-30T00:50:53.126Z,74.49
2022-07-30T00:53:19.349Z,74.64
2022-07-30T00:55:45.524Z,74.63
2022-07-30T00:58:11.933Z,74.44
2022-07-30T01:00:38.270Z,74.57
2022-07-30T01:03:04.543Z,74.63
2022-07-30T01:05:31.051Z,74.57
2022-07-30T01:07:57.233Z,74.44
2022-07-30T01:10:23.853Z,74.47
2022-07-30T01:12:52.221Z,74.56
2022-07-30T01:15:19.453Z,74.52
2022-07-30T01:17:49.882Z,74.51
2022-07-30T01:20:52.725Z,74.59
2022-07-30T01:23:44.329Z,74.48
2022-07-30T01:26:13.884Z,74.35
2022-07-30T01:28:42.761Z,74.36
2022-07-30T01:31:11.363Z,74.19
2022-07-30T01:33:44.358Z,74.30
2022-07-30T01:36:13.628Z,74.14
2022-07-30T01:38:43.212Z,74.24
2022-07-30T01:41:10.758Z,74.16
2022-07-30T01:43:38.868Z,74.25
2022-07-30T01:46:08.003Z,74.22
2022-07-30T01:48:39.975Z,74.00
2022-07-30T01:51:08.219Z,73.97
2022-07-30T01:53:38.090Z,74.07
2022-07-30T01:56:05.081Z,73.99
2022-07-30T01:58:39.404Z,74.06
2022-07-30T02:01:20.151Z,74.16
2022-07-30T02:03:47.173Z,74.16
2022-07-30T02:06:20.386Z,74.13
2022-07-30T02:09:10.631Z,74.09
2022-07-30T02:12:05.121Z,73.99
2022-07-30T02:14:48.744Z,74.01
2022-07-30T02:17:21.769Z,73.95
2022-07-30T02:19:58.380Z,74.16
2022-07-30T02:22:28.201Z,74.14
2022-07-30T02:25:01.033Z,74.21
2022-07-30T02:27:32.993Z,74.28
2022-07-30T02:30:03.034Z,74.34
2022-07-30T02:32:34.532Z,74.57
2022-07-30T02:35:09.701Z,74.58
2022-07-30T02:37:42.872Z,74.74
2022-07-30T02:40:14.917Z,74.93
2022-07-30T02:42:44.729Z,74.98
2022-07-30T02:45:17.163Z,75.11
2022-07-30T02:47:46.402Z,75.24
2022-07-30T02:50:15.726Z,75.28
2022-07-30T02:52:44.186Z,75.52
2022-07-30T02:55:12.708Z,75.58
2022-07-30T02:57:43.474Z,75.74
2022-07-30T03:00:11.624Z,75.65
2022-07-30T03:02:39.407Z,75.83
2022-07-30T03:05:08.107Z,75.89
2022-07-30T03:07:36.013Z,75.80
2022-07-30T03:10:03.406Z,75.81
2022-07-30T03:12:32.179Z,75.93
2022-07-30T03:14:58.548Z,75.76
2022-07-30T03:17:27.765Z,75.94
2022-07-30T03:19:55.547Z,76.03
2022-07-30T03:22:28.859Z,76.15
2022-07-30T03:24:58.540Z,76.31
2022-07-30T03:27:25.300Z,76.28
2022-07-30T03:29:54.831Z,76.37
2022-07-30T03:32:26.023Z,76.33
2022-07-30T03:34:53.871Z,76.33
2022-07-30T03:37:20.796Z,76.44
2022-07-30T03:39:47.996Z,76.52
2022-07-30T03:42:15.919Z,76.65
2022-07-30T03:44:45.113Z,76.78
2022-07-30T03:47:14.863Z,76.76
2022-07-30T03:49:46.125Z,76.72
2022-07-30T03:52:13.181Z,76.50
2022-07-30T03:54:40.285Z,76.57
2022-07-30T03:57:25.494Z,76.74
2022-07-30T03:59:52.152Z,76.76
2022-07-30T04:02:20.319Z,76.87
2022-07-30T04:05:18.107Z,76.98
2022-07-30T04:07:45.904Z,76.96
2022-07-30T04:10:16.239Z,77.11
2022-07-30T04:12:57.488Z,77.05
2022-07-30T04:16:38.198Z,77.04
2022-07-30T04:18:12.885Z,77.15
2022-07-30T04:20:41.156Z,77.38
2022-07-30T04:23:08.974Z,77.16
2022-07-30T04:25:35.537Z,77.42
2022-07-30T04:28:04.369Z,77.56
2022-07-30T04:30:35.295Z,77.74
2022-07-30T04:33:05.003Z,77.63
2022-07-30T04:35:50.018Z,77.64
2022-07-30T04:38:37.624Z,77.58
2022-07-30T04:41:04.173Z,77.66
2022-07-30T04:43:51.329Z,77.51
2022-07-30T04:46:18.303Z,77.72
2022-07-30T04:48:48.120Z,77.80
2022-07-30T04:51:23.480Z,77.58
2022-07-30T04:53:51.756Z,77.76
2022-07-30T04:56:20.872Z,77.75
2022-07-30T04:58:47.647Z,77.71
2022-07-30T05:01:22.543Z,77.85
2022-07-30T05:03:51.838Z,77.92
2022-07-30T05:06:19.826Z,78.05
2022-07-30T05:08:47.349Z,78.21
2022-07-30T05:11:14.765Z,78.43
2022-07-30T05:13:43.134Z,78.25
2022-07-30T05:16:14.301Z,78.27
2022-07-30T05:18:40.744Z,78.49
2022-07-30T05:21:07.915Z,78.65
2022-07-30T05:23:36.801Z,78.41
2022-07-30T05:26:20.563Z,78.46
2022-07-30T05:28:53.949Z,78.52
2022-07-30T05:31:25.857Z,78.48
2022-07-30T05:34:02.797Z,78.65
2022-07-30T05:36:36.520Z,78.66
2022-07-30T05:39:03.401Z,78.77
2022-07-30T05:41:49.457Z,78.43
2022-07-30T05:44:24.054Z,78.52
2022-07-30T05:46:51.502Z,78.60
2022-07-30T05:49:17.965Z,78.69
2022-07-30T05:51:44.479Z,78.83
2022-07-30T05:54:11.341Z,78.92
2022-07-30T05:56:49.002Z,78.87
2022-07-30T05:59:28.533Z,78.97
2022-07-30T06:02:08.762Z,78.95
2022-07-30T06:05:02.300Z,79.14
2022-07-30T06:07:28.798Z,79.12
2022-07-30T06:09:59.518Z,79.09
2022-07-30T06:12:27.829Z,79.22
2022-07-30T06:14:54.334Z,79.24
2022-07-30T06:17:26.069Z,79.27
2022-07-30T06:20:18.036Z,79.31
2022-07-30T06:23:03.480Z,79.30
2022-07-30T06:25:42.320Z,79.32
2022-07-30T06:28:27.864Z,79.41
2022-07-30T06:30:56.567Z,79.46
2022-07-30T06:33:25.688Z,79.46
2022-07-30T06:35:52.895Z,79.40
2022-07-30T06:38:22.970Z,79.57
2022-07-30T06:41:04.816Z,79.60
2022-07-30T06:43:46.695Z,79.78
2022-07-30T06:46:30.169Z,79.81
2022-07-30T06:48:57.479Z,79.71
2022-07-30T06:51:24.560Z,79.70
2022-07-30T06:53:50.816Z,79.59
2022-07-30T06:56:37.038Z,79.66
2022-07-30T06:59:05.589Z,79.69
2022-07-30T07:02:07.618Z,79.62
2022-07-30T07:04:47.518Z,79.61
2022-07-30T07:07:14.250Z,79.72
2022-07-30T07:09:44.746Z,79.81
2022-07-30T07:12:29.481Z,79.96
2022-07-30T07:14:55.940Z,79.84
2022-07-30T07:17:22.157Z,79.92
2022-07-30T07:20:00.371Z,79.88
2022-07-30T07:22:31.109Z,80.40
2022-07-30T07:24:57.419Z,80.04
2022-07-30T07:27:27.613Z,80.08
2022-07-30T07:30:01.283Z,80.00
2022-07-30T07:32:31.552Z,80.04
2022-07-30T07:34:57.743Z,80.17
2022-07-30T07:37:24.055Z,79.97
2022-07-30T07:39:50.375Z,79.91
2022-07-30T07:42:16.894Z,80.03
2022-07-30T07:44:43.928Z,79.98
2022-07-30T07:47:10.522Z,79.95
2022-07-30T07:49:43.530Z,80.11
2022-07-30T07:52:10.172Z,80.52
2022-07-30T07:54:37.539Z,80.14
2022-07-30T07:57:07.383Z,80.06
2022-07-30T07:59:40.073Z,80.03
2022-07-30T08:02:10.236Z,80.16
2022-07-30T08:04:46.743Z,80.33
2022-07-30T08:07:33.326Z,80.06
2022-07-30T08:10:15.415Z,80.37
2022-07-30T08:13:02.886Z,80.40
2022-07-30T08:15:47.765Z,81.01
2022-07-30T08:18:43.667Z,81.25
2022-07-30T08:21:17.952Z,80.82
2022-07-30T08:23:44.380Z,80.56
2022-07-30T08:26:11.256Z,80.75
2022-07-30T08:28:37.622Z,80.91
2022-07-30T08:31:06.493Z,80.82
2022-07-30T08:33:32.827Z,80.91
2022-07-30T08:36:04.336Z,81.06
2022-07-30T08:38:35.692Z,81.23
2022-07-30T08:41:01.915Z,81.14
2022-07-30T08:43:28.808Z,81.09
2022-07-30T08:45:57.936Z,81.26
2022-07-30T08:48:47.680Z,81.53
2022-07-30T08:51:17.489Z,81.71
2022-07-30T08:54:06.885Z,81.56
2022-07-30T08:56:33.921Z,81.42
2022-07-30T08:59:01.126Z,81.36
2022-07-30T09:01:27.545Z,81.17
2022-07-30T09:03:56.228Z,81.36
2022-07-30T09:06:24.788Z,81.43
2022-07-30T09:08:51.034Z,84.68
2022-07-30T09:11:17.452Z,83.52
2022-07-30T09:13:44.170Z,83.69
2022-07-30T09:16:39.325Z,83.59
2022-07-30T09:19:23.841Z,83.78
2022-07-30T09:22:01.329Z,84.13
2022-07-30T09:25:03.306Z,84.09
2022-07-30T09:27:49.719Z,84.91
2022-07-30T09:30:51.514Z,85.08
2022-07-30T09:33:40.297Z,84.51
2022-07-30T09:36:31.245Z,84.85
2022-07-30T09:39:30.991Z,84.09
2022-07-30T09:42:26.366Z,84.02
2022-07-30T09:45:12.881Z,83.84
2022-07-30T09:47:47.665Z,83.24
2022-07-30T09:50:29.248Z,83.19
2022-07-30T09:53:09.229Z,83.20
2022-07-30T09:55:42.173Z,82.49
2022-07-30T09:58:12.868Z,82.40
2022-07-30T10:00:44.727Z,82.14
2022-07-30T10:03:34.124Z,82.16
2022-07-30T10:06:33.936Z,81.86
2022-07-30T10:09:15.437Z,81.52
2022-07-30T10:11:47.760Z,81.53
2022-07-30T10:14:14.525Z,81.52
2022-07-30T10:16:40.999Z,81.53
2022-07-30T10:19:07.797Z,81.13
2022-07-30T10:21:57.369Z,81.42
2022-07-30T10:24:58.037Z,81.22
2022-07-30T10:27:45.425Z,81.47
2022-07-30T10:30:28.284Z,81.39
2022-07-30T10:32:57.964Z,81.66
2022-07-30T10:35:34.801Z,81.72
2022-07-30T10:38:09.290Z,81.69
2022-07-30T10:41:00.945Z,81.74
2022-07-30T10:44:12.579Z,81.71
2022-07-30T10:47:07.706Z,82.04
2022-07-30T10:49:41.134Z,81.98
2022-07-30T10:52:08.513Z,82.39
2022-07-30T10:54:39.657Z,82.90
2022-07-30T10:57:14.989Z,82.72
2022-07-30T10:59:55.594Z,82.57
2022-07-30T11:02:28.665Z,82.63
2022-07-30T11:05:17.483Z,83.04
2022-07-30T11:07:47.248Z,82.45
2022-07-30T11:10:38.402Z,82.33
2022-07-30T11:13:07.187Z,82.33
2022-07-30T11:15:59.071Z,82.92
2022-07-30T11:18:26.743Z,83.00
2022-07-30T11:21:15.566Z,83.03
2022-07-30T11:23:43.004Z,82.55
2022-07-30T11:26:14.157Z,82.54
2022-07-30T11:28:45.480Z,82.47
2022-07-30T11:31:56.231Z,82.51
2022-07-30T11:34:26.146Z,82.73
2022-07-30T11:37:21.554Z,82.32
2022-07-30T11:39:55.025Z,82.20
2022-07-30T11:42:41.921Z,82.88
2022-07-30T11:45:17.605Z,82.94
2022-07-30T11:47:54.564Z,83.07
2022-07-30T11:50:31.292Z,83.68
2022-07-30T11:53:08.424Z,84.35
2022-07-30T11:55:55.495Z,84.84
2022-07-30T11:58:39.522Z,84.48
2022-07-30T12:01:12.541Z,84.42
2022-07-30T12:03:43.544Z,84.60
2022-07-30T12:06:17.306Z,85.00
2022-07-30T12:08:49.176Z,84.19
2022-07-30T12:11:15.951Z,84.00
2022-07-30T12:13:45.671Z,84.15
2022-07-30T12:16:16.734Z,83.67
2022-07-30T12:18:43.866Z,83.63
2022-07-30T12:21:17.065Z,84.54
2022-07-30T12:23:57.346Z,84.13
2022-07-30T12:26:26.647Z,84.50
2022-07-30T12:28:54.392Z,84.53
2022-07-30T12:31:20.936Z,84.38
2022-07-30T12:33:47.300Z,84.48
2022-07-30T12:36:30.941Z,85.16
2022-07-30T12:38:58.152Z,84.94
2022-07-30T12:41:47.567Z,84.44
2022-07-30T12:44:35.590Z,84.41
2022-07-30T12:47:04.845Z,84.50
2022-07-30T12:49:39.198Z,84.77
2022-07-30T12:52:27.857Z,84.45
2022-07-30T12:55:08.278Z,84.52
2022-07-30T12:57:57.370Z,85.03
2022-07-30T13:00:26.511Z,85.07
2022-07-30T13:02:53.210Z,85.09
2022-07-30T13:05:19.775Z,85.13
2022-07-30T13:08:12.020Z,85.19
2022-07-30T13:10:38.563Z,85.46
2022-07-30T13:13:04.873Z,85.30
2022-07-30T13:15:31.208Z,85.31
2022-07-30T13:17:57.356Z,85.22
2022-07-30T13:20:23.646Z,85.19
2022-07-30T13:22:49.848Z,85.17
2022-07-30T13:25:16.051Z,85.13
2022-07-30T13:27:42.249Z,85.05
2022-07-30T13:30:09.696Z,84.97
2022-07-30T13:32:36.014Z,84.86
2022-07-30T13:35:02.541Z,84.86
2022-07-30T13:37:37.892Z,84.66
2022-07-30T13:40:06.295Z,84.71
2022-07-30T13:42:32.932Z,84.45
2022-07-30T13:44:59.229Z,84.55
2022-07-30T13:47:25.400Z,84.48
2022-07-30T13:49:51.735Z,84.50
2022-07-30T13:52:18.166Z,84.52
2022-07-30T13:54:44.572Z,84.45
2022-07-30T13:57:11.248Z,84.48
2022-07-30T13:59:37.503Z,84.58
2022-07-30T14:02:04.291Z,84.45
2022-07-30T14:04:30.594Z,84.48
2022-07-30T14:06:56.837Z,84.39
2022-07-30T14:09:23.167Z,84.29
2022-07-30T14:11:49.369Z,84.18
2022-07-30T14:14:15.614Z,84.07
2022-07-30T14:16:45.437Z,83.99
2022-07-30T14:19:23.370Z,83.97
2022-07-30T14:21:52.494Z,83.87
2022-07-30T14:24:19.369Z,83.89
2022-07-30T14:26:45.632Z,83.77
2022-07-30T14:29:11.869Z,83.85
2022-07-30T14:31:38.135Z,83.92
2022-07-30T14:34:04.700Z,83.71
2022-07-30T14:36:31.784Z,83.85
2022-07-30T14:38:59.461Z,83.77
2022-07-30T14:41:26.255Z,83.78
2022-07-30T14:43:52.590Z,83.61
2022-07-30T14:46:19.121Z,83.73
2022-07-30T14:48:45.394Z,83.63
2022-07-30T14:51:16.856Z,83.53
2022-07-30T14:53:47.391Z,83.52
2022-07-30T14:56:13.691Z,83.49
2022-07-30T14:58:39.930Z,83.51
2022-07-30T15:01:15.872Z,83.36
2022-07-30T15:03:44.418Z,83.45
2022-07-30T15:06:12.100Z,83.38
2022-07-30T15:08:38.547Z,83.38
2022-07-30T15:11:06.125Z,83.34
2022-07-30T15:13:34.732Z,83.48
2022-07-30T15:16:02.766Z,83.42
2022-07-30T15:18:29.042Z,83.55
2022-07-30T15:20:56.075Z,83.49
2022-07-30T15:23:22.391Z,83.51
2022-07-30T15:25:48.819Z,83.53
2022-07-30T15:28:15.321Z,83.53
2022-07-30T15:30:41.583Z,83.45
2022-07-30T15:33:07.820Z,83.52
2022-07-30T15:35:34.915Z,83.42
2022-07-30T15:38:01.373Z,83.45
2022-07-30T15:40:27.625Z,83.56
2022-07-30T15:42:53.952Z,83.47
2022-07-30T15:45:22.798Z,83.31
2022-07-30T15:47:49.061Z,83.34
2022-07-30T15:50:16.607Z,83.32
2022-07-30T15:52:43.699Z,83.52
2022-07-30T15:55:10.415Z,83.55
2022-07-30T15:57:36.803Z,83.44
2022-07-30T16:00:06.847Z,83.33
2022-07-30T16:02:39.004Z,83.17
2022-07-30T16:05:07.739Z,83.00
2022-07-30T16:07:36.844Z,82.82
2022-07-30T16:10:04.315Z,82.71
2022-07-30T16:12:30.580Z,82.66
2022-07-30T16:14:56.832Z,82.55
2022-07-30T16:17:23.083Z,82.52
2022-07-30T16:19:49.256Z,82.49
2022-07-30T16:22:23.989Z,82.35
2022-07-30T16:24:51.177Z,82.21
2022-07-30T16:27:17.823Z,82.06
2022-07-30T16:29:44.280Z,81.78
2022-07-30T16:32:10.579Z,81.60
2022-07-30T16:34:36.940Z,81.37
2022-07-30T16:37:04.153Z,81.39
2022-07-30T16:39:31.171Z,81.32
2022-07-30T16:41:57.464Z,81.11
2022-07-30T16:44:26.244Z,81.11
2022-07-30T16:46:52.480Z,80.81
2022-07-30T16:49:18.708Z,80.84
2022-07-30T16:51:44.960Z,80.82
2022-07-30T16:54:11.321Z,81.02
2022-07-30T16:56:37.476Z,81.04
2022-07-30T16:59:03.850Z,80.91
2022-07-30T17:01:31.442Z,80.70
2022-07-30T17:03:59.048Z,80.79
2022-07-30T17:06:25.760Z,80.58
2022-07-30T17:08:51.997Z,80.62
2022-07-30T17:11:45.952Z,80.68
2022-07-30T17:14:05.119Z,80.75
2022-07-30T17:16:31.954Z,80.69
2022-07-30T17:18:58.151Z,80.66
2022-07-30T17:21:24.520Z,80.72
2022-07-30T17:23:50.821Z,80.78
2022-07-30T17:26:17.041Z,80.80
2022-07-30T17:28:43.248Z,80.81
2022-07-30T17:31:09.395Z,80.76
2022-07-30T17:33:35.763Z,80.78
2022-07-30T17:36:01.972Z,80.77
2022-07-30T17:38:28.233Z,80.89
2022-07-30T17:40:54.489Z,80.73
2022-07-30T17:43:20.820Z,80.81
2022-07-30T17:45:46.986Z,80.85
2022-07-30T17:48:13.187Z,80.81
2022-07-30T17:50:39.412Z,80.81
2022-07-30T17:53:05.714Z,80.88
2022-07-30T17:55:34.248Z,80.94
2022-07-30T17:58:02.116Z,80.94
2022-07-30T18:00:28.337Z,80.92
2022-07-30T18:02:54.591Z,80.85
2022-07-30T18:05:20.839Z,80.77
2022-07-30T18:07:47.107Z,80.64
2022-07-30T18:10:13.386Z,80.49
2022-07-30T18:12:49.087Z,80.43
2022-07-30T18:15:17.394Z,79.87
2022-07-30T18:17:43.628Z,79.82
2022-07-30T18:20:10.524Z,79.59
2022-07-30T18:22:37.010Z,79.03
2022-07-30T18:25:04.312Z,78.83
2022-07-30T18:27:34.229Z,78.49
2022-07-30T18:30:00.469Z,77.74
2022-07-30T18:32:26.690Z,77.09
2022-07-30T18:34:52.923Z,77.37
2022-07-30T18:37:19.316Z,76.80
2022-07-30T18:39:45.537Z,76.60
2022-07-30T18:42:11.801Z,76.41
2022-07-30T18:44:37.914Z,76.73
2022-07-30T18:47:04.339Z,77.13
2022-07-30T18:49:38.233Z,77.47
2022-07-30T18:52:06.425Z,77.23
2022-07-30T18:54:32.927Z,77.33
2022-07-30T18:56:59.139Z,77.29
2022-07-30T18:59:25.432Z,77.47
2022-07-30T19:01:51.753Z,77.78
2022-07-30T19:04:17.991Z,77.90
2022-07-30T19:06:44.336Z,78.71
2022-07-30T19:09:17.301Z,79.61
2022-07-30T19:11:45.519Z,80.24
2022-07-30T19:14:12.561Z,80.25
2022-07-30T19:16:38.827Z,80.51
2022-07-30T19:19:05.193Z,80.50
2022-07-30T19:21:31.467Z,80.46
2022-07-30T19:23:57.668Z,80.47
2022-07-30T19:26:24.467Z,80.39
2022-07-30T19:28:50.721Z,80.36
2022-07-30T19:31:17.282Z,80.23
2022-07-30T19:33:43.593Z,80.14
2022-07-30T19:36:10.247Z,80.14
2022-07-30T19:38:39.217Z,79.67
2022-07-30T19:41:06.480Z,79.40
2022-07-30T19:43:33.670Z,79.13
2022-07-30T19:46:00.037Z,78.97
2022-07-30T19:48:29.293Z,78.74
2022-07-30T19:50:58.367Z,78.53
2022-07-30T19:53:25.986Z,78.53
2022-07-30T19:55:52.485Z,78.50
2022-07-30T19:58:18.703Z,78.30
2022-07-30T20:00:49.208Z,78.14
2022-07-30T20:03:25.433Z,78.13
2022-07-30T20:05:57.462Z,78.11
2022-07-30T20:08:28.233Z,78.20
2022-07-30T20:10:57.942Z,78.00
2022-07-30T20:13:45.354Z,78.03
2022-07-30T20:16:13.392Z,78.10
2022-07-30T20:18:40.312Z,78.05
2022-07-30T20:21:11.324Z,78.11
2022-07-30T20:23:41.310Z,78.13
2022-07-30T20:26:12.484Z,78.09
2022-07-30T20:28:43.537Z,77.81
2022-07-30T20:31:12.489Z,77.82
2022-07-30T20:33:39.407Z,77.79
2022-07-30T20:36:09.611Z,77.52
2022-07-30T20:38:38.937Z,77.55
2022-07-30T20:41:05.588Z,77.40
2022-07-30T20:43:51.700Z,77.34
2022-07-30T20:46:21.090Z,77.36
2022-07-30T20:48:51.615Z,77.12
2022-07-30T20:51:18.102Z,76.85
2022-07-30T20:53:45.177Z,76.75
2022-07-30T20:56:12.214Z,77.11
2022-07-30T20:58:40.081Z,77.18
2022-07-30T21:01:07.134Z,76.93
2022-07-30T21:03:33.663Z,76.82
2022-07-30T21:05:59.958Z,76.53
2022-07-30T21:08:26.630Z,76.63
2022-07-30T21:10:53.249Z,77.07
2022-07-30T21:13:22.546Z,76.98
2022-07-30T21:16:02.402Z,77.22
2022-07-30T21:18:30.973Z,77.05
2022-07-30T21:20:57.341Z,76.95
2022-07-30T21:23:23.708Z,76.79
2022-07-30T21:26:00.908Z,76.78
2022-07-30T21:28:35.168Z,76.62
2022-07-30T21:31:03.707Z,76.70
2022-07-30T21:33:31.060Z,76.83
2022-07-30T21:35:58.975Z,76.57
2022-07-30T21:38:28.601Z,76.77
2022-07-30T21:40:57.317Z,76.60
2022-07-30T21:43:29.871Z,76.50
2022-07-30T21:45:57.672Z,76.57
2022-07-30T21:48:24.679Z,76.32
2022-07-30T21:50:52.365Z,76.21
2022-07-30T21:53:29.917Z,76.12
2022-07-30T21:56:05.499Z,76.04
2022-07-30T21:58:31.934Z,75.98
2022-07-30T22:01:17.768Z,75.96
2022-07-30T22:04:04.250Z,75.86
2022-07-30T22:06:40.266Z,75.84
2022-07-30T22:09:18.823Z,75.71
2022-07-30T22:12:01.121Z,75.89
2022-07-30T22:14:28.584Z,75.99
2022-07-30T22:16:55.006Z,75.76
2022-07-30T22:19:21.168Z,75.54
2022-07-30T22:21:48.318Z,75.67
2022-07-30T22:24:29.369Z,75.48
2022-07-30T22:27:00.973Z,75.58
2022-07-30T22:29:34.454Z,75.41
2022-07-30T22:32:03.253Z,75.18
2022-07-30T22:34:30.174Z,75.17
2022-07-30T22:36:57.488Z,75.12
2022-07-30T22:39:23.982Z,75.04
2022-07-30T22:41:58.727Z,74.82
2022-07-30T22:44:27.157Z,74.99
2022-07-30T22:46:56.283Z,74.90
2022-07-30T22:49:26.404Z,74.82
2022-07-30T22:52:19.744Z,74.72
2022-07-30T22:54:50.799Z,74.65
2022-07-30T22:57:17.418Z,74.89
2022-07-30T23:00:00.338Z,74.76
2022-07-30T23:02:28.173Z,74.60
2022-07-30T23:04:54.478Z,74.53
2022-07-30T23:07:22.691Z,74.66
2022-07-30T23:09:51.932Z,74.69
2022-07-30T23:12:20.194Z,74.45
2022-07-30T23:14:47.280Z,74.38
2022-07-30T23:17:13.764Z,74.41
2022-07-30T23:19:40.006Z,74.20
2022-07-30T23:22:06.509Z,74.21
2022-07-30T23:24:33.146Z,74.14
2022-07-30T23:26:59.459Z,74.11
2022-07-30T23:29:25.776Z,74.17
2022-07-30T23:31:52.016Z,74.05
2022-07-30T23:34:18.217Z,73.85
2022-07-30T23:36:44.484Z,73.80
2022-07-30T23:39:10.944Z,73.61
2022-07-30T23:41:37.744Z,73.82
2022-07-30T23:44:04.069Z,73.71
2022-07-30T23:46:30.257Z,73.85
2022-07-30T23:48:56.574Z,73.67
2022-07-30T23:51:23.011Z,73.44
2022-07-30T23:53:49.309Z,73.56
2022-07-30T23:56:17.033Z,73.47
2022-07-30T23:58:45.246Z,73.32
